Gilchrist, Texas
Current Conditions -  °F | °C
As of 3:35 PM on Wednesday 26 Nov 2014 (Local Time) from KXIH Reporting Station
Clear Clear  
Wind Chill: 66°   Ceiling: Unl
Heat Index: 66°   Visibility: 10mi
Dew Point: 50°   Wind: 18mph
Humidity: 56%   Direction: 260°W
Pressure: 30.2"   Gusts: NA
Location:  29.51°N, 94.49°W
Report Text: KXIH 262135Z AUTO 26016KT 10SM CLR 19/10 A3020 RMK A01
Loading
Personal Weather Stations






























Interactive Weather Map New forecast layout! Learn more

10-Day Weather Forecast

Advertisements
Track Severe Weather on mobile